createdAt,value
2023-04-07T00:01:26.598Z,59.81
2023-04-07T00:05:15.898Z,60.07
2023-04-07T00:08:57.065Z,60.08
2023-04-07T00:12:39.390Z,60.21
2023-04-07T00:16:10.248Z,60.51
2023-04-07T00:19:44.505Z,60.76
2023-04-07T00:23:32.861Z,61.17
2023-04-07T00:27:21.973Z,61.20
2023-04-07T00:30:47.145Z,69.72
2023-04-07T00:34:36.353Z,73.01
2023-04-07T00:38:25.521Z,72.55
2023-04-07T00:42:08.960Z,69.43
2023-04-07T00:45:57.924Z,59.34
2023-04-07T00:49:46.087Z,53.86
2023-04-07T00:53:26.534Z,52.79
2023-04-07T00:57:01.165Z,52.73
2023-04-07T01:00:24.534Z,53.15
2023-04-07T01:04:12.812Z,53.71
2023-04-07T01:07:52.338Z,54.11
2023-04-07T01:11:18.253Z,54.82
2023-04-07T01:14:47.150Z,55.76
2023-04-07T01:18:38.974Z,56.47
2023-04-07T01:22:13.500Z,57.19
2023-04-07T01:25:52.022Z,58.86
2023-04-07T01:29:14.465Z,59.57
2023-04-07T01:32:47.907Z,60.49
2023-04-07T01:36:17.807Z,68.09
2023-04-07T01:43:32.576Z,70.33
2023-04-07T01:47:13.844Z,67.53
2023-04-07T01:50:54.326Z,59.56
2023-04-07T01:54:31.113Z,54.77
2023-04-07T01:58:20.081Z,54.07
2023-04-07T02:02:00.968Z,54.52
2023-04-07T02:05:51.566Z,55.20
2023-04-07T02:09:19.427Z,56.15
2023-04-07T02:12:58.050Z,56.39
2023-04-07T02:16:32.753Z,58.28
2023-04-07T02:20:14.886Z,65.66
2023-04-07T02:23:57.246Z,70.77
2023-04-07T02:27:46.366Z,69.97
2023-04-07T02:31:17.018Z,67.15
2023-04-07T02:35:05.558Z,59.06
2023-04-07T02:38:45.922Z,54.73
2023-04-07T02:42:27.409Z,54.38
2023-04-07T02:46:11.858Z,54.69
2023-04-07T02:49:45.788Z,55.63
2023-04-07T02:53:25.225Z,56.35
2023-04-07T02:56:30.783Z,57.63
2023-04-07T03:00:03.258Z,58.65
2023-04-07T03:03:45.409Z,66.07
2023-04-07T03:07:23.619Z,69.76
2023-04-07T03:10:36.797Z,68.54
2023-04-07T03:14:01.211Z,66.35
2023-04-07T03:17:39.820Z,58.53
2023-04-07T03:21:29.021Z,54.00
2023-04-07T03:24:54.091Z,53.69
2023-04-07T03:28:29.127Z,54.43
2023-04-07T03:31:56.262Z,55.04
2023-04-07T03:35:45.469Z,55.91
2023-04-07T03:39:34.726Z,57.04
2023-04-07T03:42:31.267Z,58.03
2023-04-07T03:46:13.897Z,59.60
2023-04-07T03:50:03.180Z,67.46
2023-04-07T03:53:21.499Z,70.52
2023-04-07T03:56:55.311Z,69.03
2023-04-07T04:00:36.700Z,67.37
2023-04-07T04:04:10.819Z,59.00
2023-04-07T04:07:41.779Z,54.67
2023-04-07T04:11:24.481Z,54.83
2023-04-07T04:14:21.865Z,55.87
2023-04-07T04:17:36.948Z,57.79
2023-04-07T04:21:12.762Z,59.10
2023-04-07T04:25:02.262Z,66.25
2023-04-07T04:28:49.074Z,68.70
2023-04-07T04:32:14.191Z,67.40
2023-04-07T04:35:50.376Z,65.72
2023-04-07T04:39:31.582Z,64.33
2023-04-07T04:43:19.844Z,57.61
2023-04-07T04:46:49.081Z,54.50
2023-04-07T04:50:27.178Z,55.15
2023-04-07T04:54:03.092Z,55.77
2023-04-07T04:57:40.226Z,57.23
2023-04-07T05:01:02.875Z,58.43
2023-04-07T05:04:25.463Z,66.41
2023-04-07T05:08:14.795Z,69.88
2023-04-07T05:11:55.175Z,68.13
2023-04-07T05:15:31.532Z,66.53
2023-04-07T05:18:57.268Z,64.95
2023-04-07T05:22:46.834Z,63.80
2023-04-07T05:26:37.044Z,62.68
2023-04-07T05:30:16.981Z,57.73
2023-04-07T05:33:51.175Z,54.90
2023-04-07T05:37:32.012Z,55.46
2023-04-07T05:40:55.116Z,56.72
2023-04-07T05:43:56.296Z,58.55
2023-04-07T05:46:45.145Z,63.68
2023-04-07T05:49:46.897Z,68.27
2023-04-07T05:52:44.044Z,68.56
2023-04-07T05:55:34.237Z,67.02
2023-04-07T05:58:17.359Z,65.85
2023-04-07T06:01:34.047Z,65.23
2023-04-07T06:04:22.973Z,64.25
2023-04-07T06:07:29.606Z,62.93
2023-04-07T06:10:13.650Z,58.50
2023-04-07T06:13:12.848Z,55.37
2023-04-07T06:15:52.485Z,55.92
2023-04-07T06:18:36.331Z,57.02
2023-04-07T06:21:35.830Z,57.74
2023-04-07T06:24:33.392Z,58.40
2023-04-07T06:27:31.977Z,63.10
2023-04-07T06:30:32.821Z,67.19
2023-04-07T06:33:16.053Z,66.76
2023-04-07T06:36:17.150Z,65.32
2023-04-07T06:39:04.004Z,65.59
2023-04-07T06:42:01.349Z,64.73
2023-04-07T06:45:02.492Z,64.23
2023-04-07T06:47:55.688Z,63.08
2023-04-07T06:50:56.293Z,59.32
2023-04-07T06:53:52.214Z,55.42
2023-04-07T06:56:27.375Z,54.42
2023-04-07T06:59:19.175Z,57.01
2023-04-07T07:02:08.293Z,57.53
2023-04-07T07:04:59.557Z,59.06
2023-04-07T07:08:11.041Z,64.21
2023-04-07T07:11:04.703Z,67.99
2023-04-07T07:13:56.227Z,67.62
2023-04-07T07:16:43.575Z,66.66
2023-04-07T07:19:20.623Z,65.58
2023-04-07T07:22:08.255Z,64.17
2023-04-07T07:25:10.729Z,63.24
2023-04-07T07:28:02.762Z,58.74
2023-04-07T07:30:40.254Z,55.63
2023-04-07T07:33:27.924Z,56.15
2023-04-07T07:36:15.113Z,57.74
2023-04-07T07:38:59.345Z,58.39
2023-04-07T07:41:50.915Z,63.62
2023-04-07T07:44:37.267Z,67.58
2023-04-07T07:47:37.834Z,67.24
2023-04-07T07:51:27.373Z,66.73
2023-04-07T07:55:16.565Z,66.20
2023-04-07T07:58:59.456Z,65.72
2023-04-07T08:02:31.675Z,64.20
2023-04-07T08:06:21.033Z,58.03
2023-04-07T08:10:03.017Z,55.43
2023-04-07T08:13:51.167Z,56.21
2023-04-07T08:17:40.331Z,57.18
2023-04-07T08:20:40.046Z,64.33
2023-04-07T08:24:29.016Z,67.73
2023-04-07T08:28:07.957Z,67.44
2023-04-07T08:31:48.699Z,66.19
2023-04-07T08:34:51.907Z,64.83
2023-04-07T08:38:21.120Z,63.00
2023-04-07T08:41:45.701Z,57.24
2023-04-07T08:44:36.607Z,54.90
2023-04-07T08:47:44.283Z,56.19
2023-04-07T08:51:10.444Z,56.67
2023-04-07T08:54:59.501Z,57.54
2023-04-07T08:58:46.321Z,64.22
2023-04-07T09:02:11.553Z,66.90
2023-04-07T09:06:00.898Z,65.39
2023-04-07T09:09:49.986Z,64.24
2023-04-07T09:13:39.162Z,62.50
2023-04-07T09:17:15.304Z,57.26
2023-04-07T09:20:33.037Z,55.53
2023-04-07T09:24:11.251Z,55.43
2023-04-07T09:27:51.725Z,56.48
2023-04-07T09:31:39.965Z,57.85
2023-04-07T09:35:29.144Z,64.19
2023-04-07T09:39:09.813Z,67.08
2023-04-07T09:42:37.336Z,67.09
2023-04-07T09:46:27.188Z,65.21
2023-04-07T09:50:06.861Z,63.62
2023-04-07T09:53:56.500Z,57.60
2023-04-07T09:57:19.956Z,55.04
2023-04-07T10:00:58.230Z,55.46
2023-04-07T10:04:17.892Z,56.91
2023-04-07T10:07:43.678Z,62.95
2023-04-07T10:11:27.421Z,66.93
2023-04-07T10:15:07.647Z,66.41
2023-04-07T10:18:02.699Z,64.69
2023-04-07T10:21:51.786Z,64.45
2023-04-07T10:25:20.138Z,62.77
2023-04-07T10:28:59.678Z,57.09
2023-04-07T10:32:20.220Z,54.14
2023-04-07T10:35:59.738Z,55.00
2023-04-07T10:39:40.599Z,56.25
2023-04-07T10:43:38.897Z,63.48
2023-04-07T10:47:28.165Z,66.57
2023-04-07T10:51:20.100Z,65.36
2023-04-07T10:55:00.864Z,64.63
2023-04-07T10:58:54.339Z,64.10
2023-04-07T11:01:59.853Z,63.51
2023-04-07T11:04:49.317Z,62.59
2023-04-07T11:08:34.998Z,62.29
2023-04-07T11:12:39.370Z,62.42
2023-04-07T11:16:28.664Z,62.25
2023-04-07T11:19:49.223Z,61.24
2023-04-07T11:23:34.323Z,60.78
2023-04-07T11:27:08.954Z,60.77
2023-04-07T11:30:49.517Z,56.90
2023-04-07T11:34:34.682Z,55.72
2023-04-07T11:38:06.480Z,56.66
2023-04-07T11:41:55.727Z,64.01
2023-04-07T11:45:37.635Z,67.88
2023-04-07T11:49:16.761Z,67.57
2023-04-07T11:53:06.137Z,66.34
2023-04-07T11:56:41.484Z,63.26
2023-04-07T12:00:29.638Z,62.40
2023-04-07T12:04:21.642Z,57.36
2023-04-07T12:07:59.578Z,55.39
2023-04-07T12:11:41.474Z,56.51
2023-04-07T12:14:59.207Z,57.31
2023-04-07T12:18:23.084Z,64.26
2023-04-07T12:21:27.709Z,67.83
2023-04-07T12:24:33.072Z,67.14
2023-04-07T12:27:55.213Z,66.78
2023-04-07T12:31:01.156Z,65.29
2023-04-07T12:34:05.854Z,63.07
2023-04-07T12:36:57.193Z,58.44
2023-04-07T12:39:53.832Z,57.16
2023-04-07T12:43:23.966Z,59.39
2023-04-07T12:46:49.885Z,66.14
2023-04-07T12:50:04.974Z,66.59
2023-04-07T12:53:13.987Z,66.32
2023-04-07T12:56:16.459Z,64.45
2023-04-07T12:59:32.351Z,63.58
2023-04-07T13:02:46.738Z,62.47
2023-04-07T13:05:35.151Z,61.55
2023-04-07T13:08:32.631Z,61.70
2023-04-07T13:11:55.154Z,61.70
2023-04-07T13:15:05.391Z,61.04
2023-04-07T13:18:27.055Z,60.98
2023-04-07T13:21:54.910Z,60.48
2023-04-07T13:25:19.509Z,61.00
2023-04-07T13:28:25.152Z,61.08
2023-04-07T13:31:39.101Z,60.52
2023-04-07T13:35:05.125Z,56.44
2023-04-07T13:38:45.806Z,57.20
2023-04-07T13:42:16.838Z,57.52
2023-04-07T13:45:42.297Z,65.01
2023-04-07T13:48:56.632Z,67.27
2023-04-07T13:52:45.734Z,66.34
2023-04-07T13:56:11.403Z,66.02
2023-04-07T13:59:53.723Z,64.13
2023-04-07T14:03:35.969Z,62.83
2023-04-07T14:07:15.572Z,62.33
2023-04-07T14:10:44.678Z,61.86
2023-04-07T14:14:33.944Z,61.01
2023-04-07T14:18:12.150Z,56.50
2023-04-07T14:22:01.450Z,55.00
2023-04-07T14:25:50.766Z,58.52
2023-04-07T14:29:40.071Z,63.87
2023-04-07T14:33:12.463Z,66.42
2023-04-07T14:36:45.036Z,65.86
2023-04-07T14:40:34.306Z,65.60
2023-04-07T14:44:23.574Z,65.32
2023-04-07T14:48:12.776Z,64.31
2023-04-07T14:52:02.030Z,63.32
2023-04-07T14:55:36.471Z,62.03
2023-04-07T14:59:25.822Z,56.86
2023-04-07T15:03:15.220Z,55.53
2023-04-07T15:06:59.554Z,56.39
2023-04-07T15:10:48.833Z,62.93
2023-04-07T15:14:38.101Z,65.68
2023-04-07T15:18:27.345Z,65.44
2023-04-07T15:22:16.349Z,65.33
2023-04-07T15:26:05.619Z,65.23
2023-04-07T15:29:54.988Z,65.13
2023-04-07T15:33:44.208Z,65.06
2023-04-07T15:37:23.602Z,65.14
2023-04-07T15:41:01.416Z,64.17
2023-04-07T15:44:50.584Z,64.72
2023-04-07T15:48:39.810Z,64.51
2023-04-07T15:52:21.759Z,64.57
2023-04-07T15:56:10.921Z,64.39
2023-04-07T16:00:00.207Z,64.07
2023-04-07T16:03:49.754Z,65.54
2023-04-07T16:07:39.552Z,65.38
2023-04-07T16:11:28.933Z,64.21
2023-04-07T16:15:32.399Z,63.42
2023-04-07T16:19:25.863Z,63.14
2023-04-07T16:23:15.203Z,62.40
2023-04-07T16:27:04.640Z,61.85
2023-04-07T16:30:54.127Z,61.24
2023-04-07T16:34:43.304Z,56.90
2023-04-07T16:38:32.681Z,55.26
2023-04-07T16:42:20.755Z,58.92
2023-04-07T16:45:58.780Z,64.03
2023-04-07T16:49:37.778Z,67.02
2023-04-07T16:53:21.197Z,66.81
2023-04-07T16:56:59.427Z,66.50
2023-04-07T17:00:48.801Z,65.95
2023-04-07T17:04:38.036Z,65.17
2023-04-07T17:08:27.229Z,64.52
2023-04-07T17:12:16.508Z,63.31
2023-04-07T17:16:05.786Z,62.66
2023-04-07T17:19:56.842Z,62.80
2023-04-07T17:23:14.452Z,62.39
2023-04-07T17:26:49.705Z,62.14
2023-04-07T17:30:38.850Z,61.67
2023-04-07T17:34:28.230Z,61.16
2023-04-07T17:38:07.552Z,61.12
2023-04-07T17:41:42.281Z,61.09
2023-04-07T17:45:22.548Z,61.05
2023-04-07T17:49:11.618Z,60.79
2023-04-07T17:53:00.887Z,60.64
2023-04-07T17:56:50.160Z,60.89
2023-04-07T18:00:39.941Z,60.85
2023-04-07T18:04:20.014Z,60.88
2023-04-07T18:07:56.482Z,60.64
2023-04-07T18:11:45.771Z,60.45
2023-04-07T18:15:20.148Z,60.47
2023-04-07T18:19:09.341Z,60.90
2023-04-07T18:22:58.618Z,60.92
2023-04-07T18:26:48.029Z,60.98
2023-04-07T18:30:36.032Z,60.91
2023-04-07T18:34:25.228Z,60.90
2023-04-07T18:38:14.485Z,61.27
2023-04-07T18:42:03.614Z,61.36
2023-04-07T18:44:57.112Z,61.37
2023-04-07T18:48:46.384Z,61.22
2023-04-07T18:52:27.065Z,61.22
2023-04-07T18:56:16.172Z,61.23
2023-04-07T18:59:55.667Z,61.11
2023-04-07T19:03:44.024Z,60.73
2023-04-07T19:07:26.695Z,60.88
2023-04-07T19:11:09.053Z,60.61
2023-04-07T19:14:48.401Z,60.13
2023-04-07T19:18:31.936Z,60.17
2023-04-07T19:22:21.149Z,60.40
2023-04-07T19:26:10.337Z,60.34
2023-04-07T19:29:59.769Z,56.37
2023-04-07T19:33:47.949Z,57.58
2023-04-07T19:37:27.588Z,64.04
2023-04-07T19:41:16.501Z,65.63
2023-04-07T19:44:58.497Z,65.68
2023-04-07T19:48:47.880Z,65.34
2023-04-07T19:52:37.153Z,64.28
2023-04-07T19:56:14.711Z,64.09
2023-04-07T19:59:40.065Z,63.68
2023-04-07T20:03:29.771Z,63.48
2023-04-07T20:07:13.184Z,63.07
2023-04-07T20:11:02.556Z,62.81
2023-04-07T20:14:14.455Z,62.47
2023-04-07T20:17:43.295Z,61.60
2023-04-07T20:21:26.999Z,61.54
2023-04-07T20:24:57.835Z,61.78
2023-04-07T20:28:24.604Z,61.58
2023-04-07T20:32:13.848Z,61.70
2023-04-07T20:35:57.085Z,61.12
2023-04-07T20:39:46.459Z,61.13
2023-04-07T20:43:28.487Z,61.26
2023-04-07T20:47:09.036Z,60.89
2023-04-07T20:51:07.005Z,61.16
2023-04-07T20:54:56.176Z,61.17
2023-04-07T20:58:45.360Z,61.31
2023-04-07T21:02:34.981Z,61.29
2023-04-07T21:06:24.414Z,60.94
2023-04-07T21:10:14.704Z,60.72
2023-04-07T21:13:53.017Z,60.99
2023-04-07T21:17:27.598Z,61.11
2023-04-07T21:21:19.660Z,60.96
2023-04-07T21:24:51.529Z,60.54
2023-04-07T21:28:41.132Z,60.76
2023-04-07T21:32:47.929Z,58.21
2023-04-07T21:36:12.744Z,54.94
2023-04-07T21:39:43.242Z,56.64
2023-04-07T21:43:11.210Z,63.71
2023-04-07T21:47:00.590Z,66.51
2023-04-07T21:50:43.105Z,66.18
2023-04-07T21:54:25.415Z,65.62
2023-04-07T21:58:03.324Z,65.08
2023-04-07T22:01:42.406Z,64.12
2023-04-07T22:05:30.410Z,63.10
2023-04-07T22:09:11.381Z,62.71
2023-04-07T22:12:45.598Z,62.30
2023-04-07T22:16:22.869Z,62.02
2023-04-07T22:19:46.361Z,61.64
2023-04-07T22:23:34.611Z,61.11
2023-04-07T22:27:13.639Z,60.58
2023-04-07T22:31:03.078Z,60.53
2023-04-07T22:34:52.205Z,60.57
2023-04-07T22:38:41.383Z,60.32
2023-04-07T22:42:21.359Z,55.48
2023-04-07T22:46:09.351Z,54.45
2023-04-07T22:49:33.741Z,55.97
2023-04-07T22:53:13.180Z,63.71
2023-04-07T22:56:54.744Z,66.50
2023-04-07T23:00:43.679Z,66.04
2023-04-07T23:04:32.885Z,65.16
2023-04-07T23:08:22.021Z,65.15
2023-04-07T23:12:05.264Z,65.03
2023-04-07T23:15:32.979Z,64.35
2023-04-07T23:19:15.652Z,63.62
2023-04-07T23:23:04.881Z,62.69
2023-04-07T23:26:53.989Z,62.08
2023-04-07T23:30:37.024Z,61.75
2023-04-07T23:34:25.106Z,61.35
2023-04-07T23:37:51.134Z,60.97
2023-04-07T23:41:16.857Z,60.61
2023-04-07T23:45:05.985Z,56.34
2023-04-07T23:48:55.043Z,54.64
2023-04-07T23:52:42.901Z,56.09
2023-04-07T23:56:31.192Z,64.48
